SN2038 / EI-FWB 7700 Squawk Report (14th of December, 2018)

Aircraft SU95 Reg No. EI-FWB Age 3 years old
Model SSJ-100 Jet engines 2 First flight 15-01-16
Registered 09-16 Rollout 12-15 Delivered 01-07-16
Construction No. 95108 Line No. 108 Series 95B
ADSHEX 4CA6E3 Airline name CityJet Owner N/A
Airfield based Dublin~Co Dublin~EI First tracked 2017-07-14 15:50:00

Flight history for EI-FWB

Route Flight No Date Playback
???? N/A 2019-01-10 13:15:00
???? N/A 2019-01-10 12:43:00
???? N/A 2019-01-08 07:53:00
Billund (BLL) - Brussels Airport (BRU) SN2254 2019-01-07 06:57:00
Brussels Airport (BRU) - Billund (BLL) SN2253 2019-01-06 21:20:00
Bologna (BLQ) - Brussels Airport (BRU) SN3126 2019-01-06 20:24:00
Brussels Airport (BRU) - Bologna (BLQ) SN3125 2019-01-06 15:49:00
Balice (KRK) - Brussels Airport (BRU) SN2548 2019-01-06 14:35:00
Brussels Airport (BRU) - Balice (KRK) SN2547 2019-01-06 12:08:00
Billund (BLL) - Brussels Airport (BRU) SN2250 2019-01-05 12:22:00
Brussels Airport (BRU) - Billund (BLL) SN2249 2019-01-05 10:20:00
Billund (BLL) - Brussels Airport (BRU) SN2254 2019-01-05 06:48:00
Brussels Airport (BRU) - Billund (BLL) SN2253 2019-01-04 21:14:00
EuroAirport Basel Mulhouse Freiburg (BSL) - Brussels Airport (BRU) SN706 2019-01-04 17:19:00
Brussels Airport (BRU) - EuroAirport Basel Mulhouse Freiburg (BSL) SN2705 2019-01-04 15:23:00
Billund (BLL) - Brussels Airport (BRU) SN2250 2019-01-04 12:22:00
Brussels Airport (BRU) - Billund (BLL) SN2249 2019-01-04 11:30:00
???? WX1159 2018-12-30 13:13:00
Brussels Airport (BRU) - Malpensa (MXP) SN3153 2018-12-29 06:38:00
Birmingham (BHX) - Brussels Airport (BRU) SN2038 2018-12-27 12:03:00
Time Lat Lon Altitude Heading Speed Vertical Rate
2018-12-14 12:49:35 GMT 50.900070 4.528075 25 251 145 -704
2018-12-14 12:49:30 GMT 50.901306 4.533568 100 251 147 -1024
2018-12-14 12:49:19 GMT 50.903732 4.544257 250 251 147 -704
2018-12-14 12:49:09 GMT 50.906158 4.555021 375 251 149 -896
2018-12-14 12:48:57 GMT 50.908630 4.565784 525 250 148 -896
2018-12-14 12:48:52 GMT 50.909946 4.571533 625 250 147 -704
2018-12-14 12:48:47 GMT 50.911102 4.576400 675 250 147 -704
2018-12-14 12:48:42 GMT 50.912319 4.581528 750 250 148 -768
2018-12-14 12:48:38 GMT 50.913437 4.586182 775 250 148 -896
2018-12-14 12:48:35 GMT 50.914307 4.589836 850 250 149 -960
2018-12-14 12:48:31 GMT 50.915726 4.595923 1,000 250 151 -960
2018-12-14 12:48:24 GMT 50.916557 4.599457 975 250 151 -960
2018-12-14 12:48:21 GMT 50.917534 4.603882 1,050 251 153 -768
2018-12-14 12:48:16 GMT 50.918606 4.608459 1,125 251 155 -832
2018-12-14 12:48:10 GMT 50.920139 4.615021 1,200 250 157 -896
2018-12-14 12:48:07 GMT 50.920979 4.618683 1,250 250 157 -832
2018-12-14 12:48:04 GMT 50.921814 4.622275 1,300 250 159 -768
2018-12-14 12:48:00 GMT 50.922794 4.626617 1,350 250 159 -832
2018-12-14 12:47:55 GMT 50.923820 4.630966 1,375 251 161 -960
2018-12-14 12:47:52 GMT 50.924473 4.633865 1,450 251 162 -896
2018-12-14 12:47:48 GMT 50.926006 4.640427 1,525 251 162 -960
2018-12-14 12:47:45 GMT 50.926517 4.642715 1,525 251 163 -960
2018-12-14 12:47:41 GMT 50.927307 4.646178 1,750 251 166 -576
2018-12-14 12:47:38 GMT 50.928268 4.650557 1,675 251 166 -704
2018-12-14 12:47:34 GMT 50.929916 4.658051 1,750 251 169 0
2018-12-14 12:47:31 GMT 50.929916 4.658051 1,750 251 169 0
2018-12-14 12:47:27 GMT 50.931221 4.663925 1,775 251 171 -192
2018-12-14 12:47:24 GMT 50.931885 4.666888 1,775 252 172 -256
2018-12-14 12:47:21 GMT 50.932617 4.670410 1,775 251 174 -384
2018-12-14 12:47:14 GMT 50.934387 4.678345 1,825 252 176 -512
2018-12-14 12:47:11 GMT 50.935551 4.683762 1,850 252 178 -512
2018-12-14 12:47:06 GMT 50.936874 4.689900 1,900 251 181 -576
2018-12-14 12:47:03 GMT 50.937424 4.692498 1,925 251 183 -512
2018-12-14 12:47:00 GMT 50.938576 4.697647 1,950 251 184 -448
2018-12-14 12:46:54 GMT 50.939987 4.703782 2,000 250 187 -512
2018-12-14 12:46:48 GMT 50.942020 4.712067 2,050 248 192 -512
2018-12-14 12:46:44 GMT 50.943237 4.716698 2,100 225 204 -448
2018-12-14 12:46:41 GMT 50.944721 4.721756 2,100 244 196 -320
2018-12-14 12:46:34 GMT 50.947327 4.729385 2,175 235 201 -640
2018-12-14 12:46:31 GMT 50.952030 4.737930 2,225 225 201 -512
2018-12-14 12:46:24 GMT 50.953857 4.740675 2,250 224 207 -448
2018-12-14 12:46:20 GMT 50.957245 4.745789 2,275 224 211 -448
2018-12-14 12:46:14 GMT 50.961227 4.751884 2,325 225 217 -512
2018-12-14 12:46:11 GMT 50.963058 4.754630 2,350 225 218 -448
2018-12-14 12:46:08 GMT 50.965118 4.757822 2,425 224 227 -640
2018-12-14 12:46:05 GMT 50.971115 4.766998 2,425 224 224 -448
2018-12-14 12:46:01 GMT 50.971115 4.766998 2,450 224 227 -640
2018-12-14 12:45:55 GMT 50.975212 4.773102 2,500 222 231 -320
2018-12-14 12:45:51 GMT 50.978302 4.777642 2,525 222 231 -320
2018-12-14 12:45:48 GMT 50.981140 4.781428 2,550 220 230 -448
2018-12-14 12:45:44 GMT 50.984245 4.785233 2,575 219 229 -448
2018-12-14 12:45:41 GMT 50.990204 4.790192 2,625 208 227 -512
2018-12-14 12:45:37 GMT 50.990204 4.790192 2,625 202 226 -512
2018-12-14 12:45:34 GMT 50.994160 4.792175 2,675 191 224 -320
2018-12-14 12:45:30 GMT 50.996979 4.792860 2,725 184 222 -576
2018-12-14 12:45:27 GMT 51.000183 4.793231 2,725 179 222 -512
2018-12-14 12:45:22 GMT 51.009201 4.791004 2,775 166 219 0
2018-12-14 12:45:19 GMT 51.009201 4.791004 2,775 164 218 0
2018-12-14 12:45:13 GMT 51.014420 4.788703 2,775 163 217 -192
2018-12-14 12:45:10 GMT 51.017349 4.787367 2,775 163 217 -64
2018-12-14 12:45:07 GMT 51.020279 4.785956 2,775 161 216 64
2018-12-14 12:45:01 GMT 51.026791 4.782486 2,775 150 214 -128
2018-12-14 12:44:57 GMT 51.030003 4.780273 2,775 150 214 -128
2018-12-14 12:44:52 GMT 51.033508 4.776900 2,775 138 213 -384
2018-12-14 12:44:49 GMT 51.036335 4.773102 2,800 134 213 -384
2018-12-14 12:44:46 GMT 51.038105 4.770126 2,800 127 211 -576
2018-12-14 12:44:43 GMT 51.041130 4.762573 2,850 109 210 -640
2018-12-14 12:44:37 GMT 51.042297 4.758342 2,875 90 209 -256
2018-12-14 12:44:34 GMT 51.043167 4.753665 2,925 104 209 -576
2018-12-14 12:44:31 GMT 51.043579 4.749286 2,950 94 208 -384
2018-12-14 12:44:28 GMT 51.043736 4.745026 3,000 90 209 -256
2018-12-14 12:44:25 GMT 51.043808 4.740155 3,000 90 209 -448
2018-12-14 12:44:19 GMT 51.043808 4.730950 3,075 90 210 -1408
2018-12-14 12:44:15 GMT 51.043831 4.723663 3,075 90 210 -1280
2018-12-14 12:44:09 GMT 51.043808 4.710834 3,225 89 209 -1600
2018-12-14 12:44:06 GMT 51.043808 4.710834 3,275 90 210 -1728
2018-12-14 12:44:03 GMT 51.043831 4.705887 3,425 89 209 -1728
2018-12-14 12:43:59 GMT 51.043808 4.695542 3,500 89 209 -1600
2018-12-14 12:43:52 GMT 51.043785 4.689865 3,875 90 218 -1472
2018-12-14 12:43:49 GMT 51.043762 4.683962 3,825 89 209 -1856
2018-12-14 12:43:46 GMT 51.043762 4.679062 3,850 89 209 -1856
2018-12-14 12:43:43 GMT 51.043716 4.675128 3,950 89 209 -2112
2018-12-14 12:43:39 GMT 51.043716 4.668150 4,100 89 209 -1664
2018-12-14 12:43:35 GMT 51.043671 4.663251 4,175 89 209 -1472
2018-12-14 12:43:31 GMT 51.043671 4.655160 4,300 89 210 -448
2018-12-14 12:43:28 GMT 51.043644 4.652710 4,350 90 214 -128
2018-12-14 12:43:25 GMT 51.043671 4.645509 4,375 90 214 -128
2018-12-14 12:43:20 GMT 51.043644 4.639587 4,375 90 215 -576
2018-12-14 12:43:17 GMT 51.043690 4.635773 4,400 90 216 -640
2018-12-14 12:43:14 GMT 51.043690 4.625473 4,450 90 217 -832
2018-12-14 12:43:07 GMT 51.043736 4.618378 4,525 90 217 -1408
2018-12-14 12:43:01 GMT 51.043736 4.609451 4,675 90 219 -1408
2018-12-14 12:42:58 GMT 51.043785 4.604568 4,675 90 219 -1408
2018-12-14 12:42:55 GMT 51.043831 4.600525 4,775 90 220 -1280
2018-12-14 12:42:50 GMT 51.043831 4.592667 4,900 90 223 -896
2018-12-14 12:42:47 GMT 51.043854 4.581893 4,975 90 226 -640
2018-12-14 12:42:44 GMT 51.043854 4.581893 5,025 90 228 -576
2018-12-14 12:42:40 GMT 51.043877 4.574966 5,025 90 228 -576
2018-12-14 12:42:37 GMT 51.043922 4.570541 5,075 90 234 -576
2018-12-14 12:42:34 GMT 51.043945 4.563929 5,100 90 236 -640
2018-12-14 12:42:30 GMT 51.043968 4.557648 5,300 90 244 -1856
2018-12-14 12:42:27 GMT 51.043968 4.552383 5,175 90 242 -1536
2018-12-14 12:42:24 GMT 51.044018 4.547272 5,225 90 243 -1792
2018-12-14 12:42:21 GMT 51.044037 4.541362 5,350 90 244 -1792
2018-12-14 12:42:18 GMT 51.044064 4.537354 5,425 90 247 -1600
2018-12-14 12:42:15 GMT 51.044083 4.531118 5,525 90 246 -1728
2018-12-14 12:42:11 GMT 51.044109 4.524841 5,625 90 246 -1728
2018-12-14 12:42:08 GMT 51.044128 4.519018 5,700 90 249 -1024
2018-12-14 12:42:04 GMT 51.044205 4.512482 5,875 90 248 -1280
2018-12-14 12:42:01 GMT 51.044250 4.505539 5,850 90 248 -1152
2018-12-14 12:41:58 GMT 51.044296 4.500122 5,925 90 249 -768
2018-12-14 12:41:55 GMT 51.044312 4.496155 6,000 90 251 -512
2018-12-14 12:41:52 GMT 51.044296 4.489746 6,000 89 254 -320
2018-12-14 12:41:48 GMT 51.044250 4.481659 6,050 87 257 -576
2018-12-14 12:41:44 GMT 51.043736 4.468231 6,125 82 260 -1408
2018-12-14 12:41:40 GMT 51.043488 4.465645 6,150 79 261 -1600
2018-12-14 12:41:36 GMT 51.042854 4.460220 6,225 77 261 -1664
2018-12-14 12:41:33 GMT 51.041409 4.451752 6,275 73 261 -1728
2018-12-14 12:41:30 GMT 51.040897 4.449158 6,375 72 261 -1856
2018-12-14 12:41:27 GMT 51.039360 4.441452 6,525 72 261 -1984
2018-12-14 12:41:24 GMT 51.037445 4.431721 6,625 72 259 -1984
2018-12-14 12:41:21 GMT 51.037262 4.430756 6,700 72 259 -1984
2018-12-14 12:41:17 GMT 51.035797 4.423556 6,850 72 258 -1856
2018-12-14 12:41:14 GMT 51.033463 4.412050 6,975 72 258 -1216
2018-12-14 12:41:10 GMT 51.033463 4.412050 7,025 72 257 -1472
2018-12-14 12:41:07 GMT 51.032379 4.406662 7,150 72 257 -1344
2018-12-14 12:41:04 GMT 51.031174 4.400618 7,250 72 259 -1152
2018-12-14 12:40:59 GMT 51.029724 4.393234 7,350 72 258 -1216
2018-12-14 12:40:56 GMT 51.028469 4.386978 7,525 72 266 -1216
2018-12-14 12:40:53 GMT 51.027351 4.381561 7,400 72 260 -1024
2018-12-14 12:40:50 GMT 51.026234 4.375992 7,450 72 261 -1024
2018-12-14 12:40:47 GMT 51.025116 4.370422 7,525 72 263 -960
2018-12-14 12:40:44 GMT 51.023712 4.363428 7,525 72 265 -1088
2018-12-14 12:40:41 GMT 51.023022 4.359741 7,600 72 265 -1024
2018-12-14 12:40:38 GMT 51.021717 4.353180 7,650 72 265 -1152
2018-12-14 12:40:35 GMT 51.020741 4.348373 7,700 72 266 -1216
2018-12-14 12:40:32 GMT 51.019203 4.340744 7,800 72 267 -1408
2018-12-14 12:40:28 GMT 51.017902 4.334335 7,875 72 267 -1536
2018-12-14 12:40:22 GMT 51.015564 4.322675 8,025 72 268 -1536
2018-12-14 12:40:19 GMT 51.014648 4.318072 8,125 72 268 -1472
2018-12-14 12:40:15 GMT 51.012955 4.309684 8,350 72 268 -1472
2018-12-14 12:40:12 GMT 51.012268 4.306335 8,350 72 268 -1472
2018-12-14 12:40:09 GMT 51.010712 4.298475 8,350 72 269 -1472
2018-12-14 12:40:06 GMT 51.009941 4.294739 8,400 72 269 -1344
2018-12-14 12:40:02 GMT 51.007984 4.285049 8,525 72 269 -1280
2018-12-14 12:39:59 GMT 51.006821 4.279175 8,625 72 271 -1408
2018-12-14 12:39:56 GMT 51.006031 4.275360 8,575 72 271 -1280
2018-12-14 12:39:53 GMT 51.004440 4.267372 8,725 72 271 -1408
2018-12-14 12:39:50 GMT 51.003422 4.262466 8,775 72 271 -1472
2018-12-14 12:39:47 GMT 51.002769 4.259262 9,550 71 277 -1472
2018-12-14 12:39:44 GMT 51.001282 4.251862 9,250 72 271 -1408
2018-12-14 12:39:41 GMT 51.000137 4.246290 9,075 72 273 -1344
2018-12-14 12:39:38 GMT 50.998810 4.239758 9,075 72 273 -1344
2018-12-14 12:39:34 GMT 50.997417 4.232864 9,250 72 273 -1280
2018-12-14 12:39:30 GMT 50.996162 4.226608 9,250 72 273 -1280
2018-12-14 12:39:27 GMT 50.994873 4.220160 9,300 72 275 -1216
2018-12-14 12:39:22 GMT 50.992859 4.210436 9,400 72 275 -1280
2018-12-14 12:39:19 GMT 50.990620 4.199448 9,475 72 276 -1344
2018-12-14 12:39:16 GMT 50.990620 4.199448 9,525 72 276 -1408
2018-12-14 12:39:11 GMT 50.988556 4.189206 9,650 71 277 -1408
2018-12-14 12:39:08 GMT 50.986862 4.181189 9,750 71 277 -1472
2018-12-14 12:39:05 GMT 50.986221 4.177997 9,775 71 277 -1472
2018-12-14 12:39:01 GMT 50.984802 4.170914 9,875 72 278 -1536
2018-12-14 12:38:58 GMT 50.983246 4.163373 9,950 72 278 -1472
2018-12-14 12:38:55 GMT 50.981823 4.156647 10,000 71 278 -1472
2018-12-14 12:38:51 GMT 50.980637 4.150754 10,125 71 278 -1280
2018-12-14 12:38:48 GMT 50.979263 4.143998 10,200 71 279 -960
2018-12-14 12:38:44 GMT 50.978027 4.138134 10,250 71 281 -768
2018-12-14 12:38:41 GMT 50.976562 4.131088 10,275 71 281 -640
2018-12-14 12:38:38 GMT 50.975555 4.126183 10,325 71 283 -512
2018-12-14 12:38:35 GMT 50.973724 4.117508 10,375 71 287 -448
2018-12-14 12:38:29 GMT 50.971443 4.106522 10,400 71 290 -384
2018-12-14 12:38:26 GMT 50.969971 4.099311 10,425 71 294 -512
2018-12-14 12:38:19 GMT 50.966972 4.084930 10,500 71 299 -576
2018-12-14 12:38:14 GMT 50.964645 4.073868 10,550 71 304 -512
2018-12-14 12:38:10 GMT 50.963573 4.068680 10,550 71 305 -512
2018-12-14 12:38:07 GMT 50.962086 4.061508 10,675 71 308 -512
2018-12-14 12:38:04 GMT 50.959442 4.048610 10,625 72 312 -448
2018-12-14 12:38:01 GMT 50.959442 4.048610 10,675 72 315 -448
2018-12-14 12:37:57 GMT 50.957611 4.039628 10,700 72 317 -448
2018-12-14 12:37:54 GMT 50.956264 4.032974 10,700 72 320 -512
2018-12-14 12:37:51 GMT 50.954819 4.025673 10,725 72 322 -576
2018-12-14 12:37:48 GMT 50.953472 4.018860 10,750 73 328 -512
2018-12-14 12:37:44 GMT 50.951797 4.010162 10,775 73 330 -512
2018-12-14 12:37:41 GMT 50.949982 4.000549 10,800 73 332 -512
2018-12-14 12:37:36 GMT 50.948318 3.991081 10,850 104 355 -2304
2018-12-14 12:37:31 GMT 50.946350 3.979568 10,925 76 340 -1856
2018-12-14 12:37:27 GMT 50.944908 3.969574 11,050 78 343 -1984
2018-12-14 12:37:23 GMT 50.943695 3.958790 14,125 105 366 -1664
2018-12-14 12:37:19 GMT 50.942871 3.949288 11,900 83 345 -2048
2018-12-14 12:37:16 GMT 50.942505 3.942681 11,425 86 347 -2176
2018-12-14 12:37:13 GMT 50.942207 3.935165 11,475 87 347 -2176
2018-12-14 12:37:10 GMT 50.942093 3.924495 11,900 94 350 -2304
2018-12-14 12:37:06 GMT 50.942253 3.916321 11,825 93 349 -2304
2018-12-14 12:37:02 GMT 50.942577 3.908310 11,950 95 350 -2304
2018-12-14 12:36:59 GMT 50.944069 3.889313 12,475 99 351 -2112
2018-12-14 12:36:56 GMT 50.944069 3.889313 12,200 99 351 -2112
2018-12-14 12:36:53 GMT 50.944977 3.882034 12,300 102 353 -1984
2018-12-14 12:36:49 GMT 50.946259 3.873138 12,400 103 353 -1984
2018-12-14 12:36:46 GMT 50.947220 3.866816 12,500 103 355 -2176
2018-12-14 12:36:42 GMT 50.948864 3.856659 12,650 104 356 -2368
2018-12-14 12:36:38 GMT 50.952118 3.836530 12,925 104 356 -2496
2018-12-14 12:36:35 GMT 50.952118 3.836530 13,000 104 356 -2496
2018-12-14 12:36:32 GMT 50.953171 3.830368 13,075 104 356 -2560
2018-12-14 12:36:28 GMT 50.954636 3.821564 14,125 105 366 -1664
2018-12-14 12:36:25 GMT 50.955872 3.814037 13,450 104 356 -2304
2018-12-14 12:36:22 GMT 50.957748 3.802828 13,525 104 356 -2240
2018-12-14 12:36:17 GMT 50.959759 3.791046 13,725 105 357 -1920
2018-12-14 12:36:14 GMT 50.960827 3.784943 13,775 105 358 -1792
2018-12-14 12:36:11 GMT 50.961945 3.778305 13,875 105 358 -1728
2018-12-14 12:36:08 GMT 50.963295 3.770676 14,000 105 370 -1792
2018-12-14 12:36:05 GMT 50.964890 3.761481 14,375 104 374 -2048
2018-12-14 12:36:01 GMT 50.966858 3.749975 14,125 105 363 -1536
2018-12-14 12:35:57 GMT 50.967957 3.743740 14,200 105 365 -1600
2018-12-14 12:35:53 GMT 50.970184 3.731155 14,350 105 367 -1792
2018-12-14 12:35:50 GMT 50.971115 3.725627 14,400 105 368 -1792
2018-12-14 12:35:47 GMT 50.974377 3.706970 15,100 104 395 -2112
2018-12-14 12:35:43 GMT 50.974377 3.706970 14,650 105 372 -1792
2018-12-14 12:35:40 GMT 50.976013 3.697493 14,950 104 374 -1984
2018-12-14 12:35:37 GMT 50.977539 3.688660 14,825 104 375 -2112
2018-12-14 12:35:32 GMT 50.979263 3.678267 14,950 104 375 -2112
2018-12-14 12:35:29 GMT 50.980865 3.668469 15,000 104 375 -2112
2018-12-14 12:35:26 GMT 50.984337 3.647614 15,325 104 379 -1536
2018-12-14 12:35:22 GMT 50.984337 3.647614 15,275 104 378 -1664
2018-12-14 12:35:19 GMT 50.985077 3.643155 15,375 104 380 -1536
2018-12-14 12:35:16 GMT 50.986404 3.635138 15,500 104 381 -1600
2018-12-14 12:35:13 GMT 50.988464 3.622667 15,575 104 383 -1920
2018-12-14 12:35:10 GMT 50.989609 3.615690 15,650 104 385 -2112
2018-12-14 12:35:05 GMT 50.991394 3.604703 15,875 104 385 -2112
2018-12-14 12:35:02 GMT 50.993088 3.594534 15,900 104 386 -1856
2018-12-14 12:34:59 GMT 50.993973 3.589020 16,050 104 388 -1664
2018-12-14 12:34:55 GMT 50.996162 3.575592 16,125 104 390 -1792
2018-12-14 12:34:50 GMT 50.998260 3.562837 16,275 104 391 -1984
2018-12-14 12:34:47 GMT 50.999771 3.553632 16,450 104 393 -1984
2018-12-14 12:34:44 GMT 51.001095 3.545685 16,450 104 393 -1984
2018-12-14 12:34:40 GMT 51.002884 3.534628 16,600 104 395 -2112
2018-12-14 12:34:37 GMT 51.004761 3.523048 16,825 104 400 -1536
2018-12-14 12:34:34 GMT 51.005890 3.516083 16,825 104 400 -1536
2018-12-14 12:34:31 GMT 51.007050 3.509167 16,875 104 398 -1792
2018-12-14 12:34:28 GMT 51.009842 3.491945 17,000 104 402 -3008
2018-12-14 12:34:25 GMT 51.009842 3.491945 17,100 104 401 -1920
2018-12-14 12:34:22 GMT 51.011261 3.483334 17,250 104 402 -2432
2018-12-14 12:34:18 GMT 51.013012 3.472443 17,375 104 402 -3008
2018-12-14 12:34:15 GMT 51.014175 3.465118 17,425 104 402 -3008
2018-12-14 12:34:11 GMT 51.016068 3.453641 17,600 104 402 -2752
2018-12-14 12:34:08 GMT 51.017715 3.443323 17,875 104 401 -2496
2018-12-14 12:34:05 GMT 51.019066 3.435135 17,900 104 403 -1920
2018-12-14 12:34:01 GMT 51.020741 3.424911 18,025 104 408 -1088
2018-12-14 12:33:58 GMT 51.022430 3.414595 18,150 104 408 -1088
2018-12-14 12:33:55 GMT 51.023907 3.405685 18,175 104 408 -1088
2018-12-14 12:33:52 GMT 51.026688 3.388466 18,325 104 413 -1088
2018-12-14 12:33:46 GMT 51.028336 3.378222 18,750 104 420 -1024
2018-12-14 12:33:43 GMT 51.029587 3.370743 18,475 104 413 -1088
2018-12-14 12:33:40 GMT 51.030716 3.363524 18,475 104 414 -1024
2018-12-14 12:33:37 GMT 51.032146 3.354645 18,500 104 414 -960
2018-12-14 12:33:34 GMT 51.033691 3.345114 18,550 104 420 -1024
2018-12-14 12:33:30 GMT 51.035522 3.333682 18,575 104 415 -960
2018-12-14 12:33:27 GMT 51.037128 3.323746 18,700 104 415 -960
2018-12-14 12:33:23 GMT 51.038616 3.314438 18,725 104 415 -960
2018-12-14 12:33:19 GMT 51.040833 3.300946 18,800 104 416 -1024
2018-12-14 12:33:16 GMT 51.042435 3.290939 18,850 104 417 -1024
2018-12-14 12:33:13 GMT 51.044083 3.280681 18,900 104 417 -1024
2018-12-14 12:33:08 GMT 51.046249 3.267136 18,975 104 418 -1024
2018-12-14 12:33:04 GMT 51.049232 3.248672 19,225 104 425 -960
2018-12-14 12:32:58 GMT 51.052643 3.227457 20,825 104 429 -1216
2018-12-14 12:32:51 GMT 51.054153 3.218178 19,250 104 423 -896
2018-12-14 12:32:48 GMT 51.055481 3.209938 19,725 104 422 -960
2018-12-14 12:32:45 GMT 51.057655 3.196411 19,450 104 420 -1024
2018-12-14 12:32:42 GMT 51.058960 3.188262 19,450 104 420 -1088
2018-12-14 12:32:39 GMT 51.060013 3.181804 19,475 104 422 -960
2018-12-14 12:32:35 GMT 51.061661 3.171486 19,525 104 421 -1024
2018-12-14 12:32:31 GMT 51.063766 3.158198 19,600 104 422 -960
2018-12-14 12:32:28 GMT 51.065060 3.150330 19,625 104 422 -896
2018-12-14 12:32:25 GMT 51.066689 3.139877 19,825 104 424 -1024
2018-12-14 12:32:22 GMT 51.067886 3.132440 19,750 104 424 -1024
2018-12-14 12:32:19 GMT 51.069855 3.120193 20,050 104 423 -960
2018-12-14 12:32:15 GMT 51.071274 3.111284 19,800 104 424 -1024
2018-12-14 12:32:12 GMT 51.072971 3.100739 19,875 104 423 -1024
2018-12-14 12:32:09 GMT 51.074650 3.090286 20,225 104 425 -1024
2018-12-14 12:32:05 GMT 51.077774 3.070456 20,175 104 425 -1024
2018-12-14 12:32:02 GMT 51.077774 3.070456 20,200 104 425 -1024
2018-12-14 12:31:58 GMT 51.080017 3.056575 20,150 104 425 -960
2018-12-14 12:31:55 GMT 51.081253 3.048706 20,175 104 425 -960
2018-12-14 12:31:52 GMT 51.083122 3.036880 20,600 104 429 -896
2018-12-14 12:31:49 GMT 51.085556 3.021463 20,450 104 425 -896
2018-12-14 12:31:46 GMT 51.085556 3.021463 20,325 104 425 -896
2018-12-14 12:31:43 GMT 51.089310 2.997931 20,600 104 429 -896
2018-12-14 12:31:38 GMT 51.089310 2.997931 20,600 104 425 -960
2018-12-14 12:31:35 GMT 51.090847 2.988358 20,525 104 425 -960
2018-12-14 12:31:32 GMT 51.092285 2.979299 21,025 104 429 -1216
2018-12-14 12:31:29 GMT 51.093475 2.971728 20,650 104 428 -1088
2018-12-14 12:31:26 GMT 51.094757 2.963562 20,625 104 428 -1088
2018-12-14 12:31:23 GMT 51.096760 2.951126 20,650 104 429 -1088
2018-12-14 12:31:19 GMT 51.099087 2.936478 20,775 104 430 -1280
2018-12-14 12:31:16 GMT 51.101322 2.922134 20,925 104 429 -1216
2018-12-14 12:31:13 GMT 51.103184 2.910461 21,025 104 428 64
2018-12-14 12:31:06 GMT 51.105057 2.898461 21,000 104 428 64
2018-12-14 12:31:03 GMT 51.107803 2.881016 21,025 104 428 64
2018-12-14 12:30:57 GMT 51.109425 2.870941 21,000 104 428 128
2018-12-14 12:30:53 GMT 51.111008 2.860751 21,000 104 428 64
2018-12-14 12:30:50 GMT 51.112518 2.851249 21,000 104 427 -64
2018-12-14 12:30:46 GMT 51.114449 2.838898 21,000 104 428 -64
2018-12-14 12:30:43 GMT 51.115940 2.829437 21,000 104 428 -64
2018-12-14 12:30:40 GMT 51.116959 2.822818 21,000 104 428 -128
2018-12-14 12:30:36 GMT 51.119244 2.808380 21,025 104 428 -64
2018-12-14 12:30:32 GMT 51.120735 2.798843 21,025 104 428 128
2018-12-14 12:30:29 GMT 51.122505 2.787781 21,025 104 428 128
2018-12-14 12:30:26 GMT 51.126320 2.763214 21,000 104 429 128
2018-12-14 12:30:21 GMT 51.126320 2.763214 21,000 103 430 -128
2018-12-14 12:30:15 GMT 51.129684 2.741905 21,000 103 430 0
2018-12-14 12:30:10 GMT 51.132095 2.726440 20,975 103 433 -192
2018-12-14 12:30:03 GMT 51.136375 2.698975 21,025 103 432 64
2018-12-14 12:29:56 GMT 51.139755 2.677249 21,000 103 431 64
2018-12-14 12:29:53 GMT 51.139755 2.677249 21,000 103 431 192
2018-12-14 12:29:50 GMT 51.141312 2.667236 21,000 103 430 64
2018-12-14 12:29:46 GMT 51.142960 2.656613 21,000 103 430 64
2018-12-14 12:29:41 GMT 51.145313 2.641449 20,975 103 433 -128
2018-12-14 12:29:38 GMT 51.147038 2.630539 20,975 103 432 -64
2018-12-14 12:29:34 GMT 51.148945 2.618256 20,975 103 432 -64
2018-12-14 12:29:30 GMT 51.150970 2.605022 20,975 103 432 -192
2018-12-14 12:29:23 GMT 51.155834 2.573318 21,000 103 429 -192
2018-12-14 12:29:20 GMT 51.155834 2.573318 21,025 103 422 -64
2018-12-14 12:29:16 GMT 51.159328 2.550507 21,025 103 423 256
2018-12-14 12:29:12 GMT 51.159328 2.550507 21,025 103 422 128
2018-12-14 12:29:08 GMT 51.160957 2.540131 21,000 103 422 64
2018-12-14 12:29:03 GMT 51.163834 2.521585 21,000 103 422 0
2018-12-14 12:28:59 GMT 51.167519 2.497482 21,025 103 422 -128
2018-12-14 12:28:54 GMT 51.167519 2.497482 21,025 103 422 -128
2018-12-14 12:28:50 GMT 51.169567 2.484360 21,025 103 422 -128
2018-12-14 12:28:47 GMT 51.170654 2.477120 21,025 103 422 64
2018-12-14 12:28:44 GMT 51.172222 2.466965 21,025 103 422 0
2018-12-14 12:28:41 GMT 51.173431 2.459106 21,025 103 422 64
2018-12-14 12:28:38 GMT 51.175526 2.445297 21,000 103 421 128
2018-12-14 12:28:34 GMT 51.177017 2.435837 21,000 103 421 64
2018-12-14 12:28:31 GMT 51.178226 2.427750 21,000 103 421 0
2018-12-14 12:28:27 GMT 51.180088 2.415619 21,000 103 421 64
2018-12-14 12:28:23 GMT 51.181858 2.404251 21,000 103 422 0
2018-12-14 12:28:19 GMT 51.183907 2.390518 21,000 103 422 -128
2018-12-14 12:28:15 GMT 51.185581 2.379837 21,000 103 422 -128
2018-12-14 12:28:11 GMT 51.187675 2.366180 21,025 103 422 0
2018-12-14 12:28:08 GMT 51.190144 2.349930 21,000 103 422 0
2018-12-14 12:28:05 GMT 51.190144 2.349930 21,000 103 422 0
2018-12-14 12:28:02 GMT 51.191803 2.338974 21,000 103 422 0
2018-12-14 12:27:58 GMT 51.193588 2.327194 21,000 103 422 -64
2018-12-14 12:27:55 GMT 51.195217 2.316666 21,025 103 422 0
2018-12-14 12:27:51 GMT 51.197250 2.303195 21,025 103 422 0
2018-12-14 12:27:47 GMT 51.198669 2.293990 21,000 103 422 64
2018-12-14 12:27:44 GMT 51.199875 2.286072 21,000 103 423 64
2018-12-14 12:27:40 GMT 51.201874 2.272760 21,000 103 422 -64
2018-12-14 12:27:36 GMT 51.204018 2.258453 21,000 103 422 -64
2018-12-14 12:27:32 GMT 51.205627 2.247818 21,000 103 422 0
2018-12-14 12:27:28 GMT 51.207275 2.237128 21,000 103 422 -64
2018-12-14 12:27:24 GMT 51.211281 2.210464 21,025 103 422 -64
2018-12-14 12:27:20 GMT 51.211281 2.210464 21,000 103 422 -64
2018-12-14 12:27:15 GMT 51.213142 2.198105 21,025 103 421 0
2018-12-14 12:27:11 GMT 51.214737 2.187393 21,000 103 421 192
2018-12-14 12:27:08 GMT 51.216400 2.176285 21,025 103 420 -64
2018-12-14 12:27:05 GMT 51.218857 2.160001 21,025 103 420 64
2018-12-14 12:27:02 GMT 51.218857 2.160001 22,275 98 435 -2624
2018-12-14 12:26:59 GMT 51.220413 2.149683 21,000 103 424 -64
2018-12-14 12:26:56 GMT 51.222061 2.138697 21,000 103 420 128
2018-12-14 12:26:52 GMT 51.223572 2.128527 21,000 103 420 192
2018-12-14 12:26:48 GMT 51.225311 2.116872 20,975 103 421 128
2018-12-14 12:26:45 GMT 51.226730 2.107297 20,975 102 425 -640
2018-12-14 12:26:41 GMT 51.228882 2.092821 20,975 103 423 -64
2018-12-14 12:26:37 GMT 51.232414 2.068787 21,050 102 425 -64
2018-12-14 12:26:33 GMT 51.232414 2.068787 21,000 103 425 -128
2018-12-14 12:26:30 GMT 51.233139 2.063945 21,000 103 424 -64
2018-12-14 12:26:27 GMT 51.234741 2.052841 21,000 103 424 -64
2018-12-14 12:26:24 GMT 51.235931 2.044496 21,025 101 425 -1856
2018-12-14 12:26:21 GMT 51.237534 2.033510 21,025 102 425 -256
2018-12-14 12:26:18 GMT 51.238632 2.025864 21,025 102 425 -320
2018-12-14 12:26:15 GMT 51.240051 2.015917 21,150 101 425 -1856
2018-12-14 12:26:12 GMT 51.240932 2.009430 21,050 102 425 -448
2018-12-14 12:26:09 GMT 51.242615 1.997433 21,125 101 426 -1536
2018-12-14 12:26:06 GMT 51.243851 1.988451 21,175 101 426 -1600
2018-12-14 12:26:03 GMT 51.244984 1.980438 21,225 102 425 -1280
2018-12-14 12:26:00 GMT 51.246567 1.968536 21,200 101 425 -1856
2018-12-14 12:25:56 GMT 51.248009 1.957550 21,700 100 426 -2176
2018-12-14 12:25:52 GMT 51.249252 1.948143 21,725 101 425 -1856
2018-12-14 12:25:49 GMT 51.251862 1.927136 21,575 100 426 -2176
2018-12-14 12:25:46 GMT 51.253098 1.916446 21,675 100 427 -2176
2018-12-14 12:25:42 GMT 51.253098 1.916446 22,050 99 428 -2368
2018-12-14 12:25:39 GMT 51.254478 1.903839 22,025 99 428 -2368
2018-12-14 12:25:36 GMT 51.255157 1.897443 21,950 99 428 -2368
2018-12-14 12:25:32 GMT 51.256439 1.884749 22,225 98 428 -2240
2018-12-14 12:25:28 GMT 51.257736 1.870956 22,400 98 432 -2304
2018-12-14 12:25:24 GMT 51.259182 1.854477 22,650 98 432 -2240
2018-12-14 12:25:21 GMT 51.259735 1.848450 22,575 98 432 -2176
2018-12-14 12:25:17 GMT 51.260857 1.836090 22,675 98 432 -2240
2018-12-14 12:25:14 GMT 51.261383 1.829892 22,700 98 432 -2304
2018-12-14 12:25:11 GMT 51.262390 1.818608 22,900 98 433 -2496
2018-12-14 12:25:06 GMT 51.263699 1.804352 23,375 98 435 -2624
2018-12-14 12:25:03 GMT 51.264542 1.794854 23,500 98 438 -1984
2018-12-14 12:24:59 GMT 51.265869 1.779785 23,375 98 435 -2624
2018-12-14 12:24:56 GMT 51.266556 1.772213 23,550 98 435 -2560
2018-12-14 12:24:53 GMT 51.267372 1.762848 23,600 98 435 -2432
2018-12-14 12:24:49 GMT 51.268799 1.746529 23,800 98 437 -2176
2018-12-14 12:24:45 GMT 51.269669 1.736953 23,950 98 438 -2048
2018-12-14 12:24:42 GMT 51.270630 1.726115 24,500 97 439 -2048
2018-12-14 12:24:38 GMT 51.271591 1.715055 24,175 98 440 -2112
2018-12-14 12:24:35 GMT 51.272495 1.705246 24,375 98 442 -2560
2018-12-14 12:24:32 GMT 51.273422 1.694418 24,375 98 442 -2496
2018-12-14 12:24:29 GMT 51.274357 1.683731 24,525 98 443 -2496
2018-12-14 12:24:26 GMT 51.275101 1.675339 25,200 98 443 -2432
2018-12-14 12:24:23 GMT 51.276127 1.663971 24,825 98 444 -2304
2018-12-14 12:24:19 GMT 51.277149 1.652069 24,950 97 446 -2240
2018-12-14 12:24:16 GMT 51.278500 1.636505 25,075 98 445 -2304
2018-12-14 12:24:13 GMT 51.278961 1.631321 25,200 97 446 -2176
2018-12-14 12:24:10 GMT 51.280563 1.612838 25,375 97 448 -2368
2018-12-14 12:24:07 GMT 51.280563 1.612838 25,525 97 449 -2816
2018-12-14 12:24:04 GMT 51.281479 1.602593 25,575 97 449 -2688
2018-12-14 12:24:01 GMT 51.282211 1.594205 25,775 97 449 -2496
2018-12-14 12:23:58 GMT 51.283157 1.583176 25,825 97 449 -2496
2018-12-14 12:23:55 GMT 51.283905 1.574757 25,975 97 458 -2304
2018-12-14 12:23:52 GMT 51.284924 1.562958 26,050 97 451 -1856
2018-12-14 12:23:48 GMT 51.286041 1.550217 26,275 97 454 -1792
2018-12-14 12:23:45 GMT 51.286789 1.541649 26,325 97 455 -1856
2018-12-14 12:23:42 GMT 51.287811 1.529999 26,350 97 457 -2176
2018-12-14 12:23:39 GMT 51.288712 1.519825 26,550 97 460 -2688
2018-12-14 12:23:36 GMT 51.289536 1.510397 26,550 97 459 -2368
2018-12-14 12:23:33 GMT 51.290634 1.497333 26,900 97 460 -2624
2018-12-14 12:23:27 GMT 51.292187 1.479645 27,200 97 462 -3008
2018-12-14 12:23:24 GMT 51.293060 1.469421 27,950 97 461 -3008
2018-12-14 12:23:21 GMT 51.293930 1.459177 28,625 97 465 -1728
2018-12-14 12:23:17 GMT 51.295212 1.443939 27,450 97 462 -2944
2018-12-14 12:23:14 GMT 51.295864 1.436844 27,500 97 462 -2816
2018-12-14 12:23:10 GMT 51.297169 1.421661 27,750 97 463 -2176
2018-12-14 12:23:04 GMT 51.298843 1.402054 27,975 97 466 -1664
2018-12-14 12:23:01 GMT 51.299587 1.393204 28,050 97 468 -1600
2018-12-14 12:22:57 GMT 51.300846 1.378937 28,250 97 470 -1920
2018-12-14 12:22:54 GMT 51.301682 1.368790 28,375 97 477 128
2018-12-14 12:22:51 GMT 51.302948 1.354510 28,375 97 476 -1024
2018-12-14 12:22:48 GMT 51.303497 1.348052 28,525 97 476 -1024
2018-12-14 12:22:44 GMT 51.304943 1.331024 28,525 97 476 -1024
2018-12-14 12:22:41 GMT 51.306061 1.318054 28,750 97 482 -1728
2018-12-14 12:22:38 GMT 51.306656 1.310936 28,875 97 480 -576
2018-12-14 12:22:35 GMT 51.307617 1.299356 28,825 97 483 -1280
2018-12-14 12:22:32 GMT 51.308666 1.287003 29,050 97 482 -640
2018-12-14 12:22:29 GMT 51.310318 1.267436 28,875 97 482 -640
2018-12-14 12:22:26 GMT 51.310318 1.267436 28,925 97 481 -576
2018-12-14 12:22:23 GMT 51.310822 1.261052 28,925 97 481 -576
2018-12-14 12:22:20 GMT 51.311966 1.247319 29,000 97 482 64
2018-12-14 12:22:16 GMT 51.313183 1.233368 29,025 97 478 0
2018-12-14 12:22:13 GMT 51.313797 1.225792 29,025 97 478 0
2018-12-14 12:22:10 GMT 51.315170 1.209387 29,050 97 477 0
2018-12-14 12:22:05 GMT 51.316116 1.197968 29,050 97 477 128
2018-12-14 12:22:02 GMT 51.317417 1.182327 29,025 97 477 192
2018-12-14 12:21:58 GMT 51.318069 1.174774 29,025 97 477 256
2018-12-14 12:21:55 GMT 51.319328 1.159973 29,000 97 478 192
2018-12-14 12:21:52 GMT 51.320023 1.151634 28,975 97 479 192
2018-12-14 12:21:49 GMT 51.320847 1.141390 29,000 97 480 64
2018-12-14 12:21:46 GMT 51.321945 1.128697 28,975 97 482 -128
2018-12-14 12:21:42 GMT 51.323517 1.109619 28,975 97 483 0
2018-12-14 12:21:39 GMT 51.324005 1.104052 28,975 97 484 -256
2018-12-14 12:21:36 GMT 51.324772 1.094971 28,975 97 485 -256
2018-12-14 12:21:33 GMT 51.325474 1.086349 29,000 97 482 0
2018-12-14 12:21:30 GMT 51.326477 1.073988 29,000 97 484 0
2018-12-14 12:21:27 GMT 51.327209 1.065525 29,000 97 482 -64
2018-12-14 12:21:24 GMT 51.328079 1.054984 29,000 97 481 64
2018-12-14 12:21:21 GMT 51.329269 1.040509 29,000 97 482 0
2018-12-14 12:21:18 GMT 51.330315 1.027527 29,000 97 481 64
2018-12-14 12:21:15 GMT 51.331741 1.010371 29,000 97 481 128
2018-12-14 12:21:12 GMT 51.331741 1.010371 29,000 97 481 0
2018-12-14 12:21:09 GMT 51.332359 1.002884 29,000 97 481 128
2018-12-14 12:21:06 GMT 51.333389 0.990477 29,000 97 481 64
2018-12-14 12:21:03 GMT 51.334259 0.979862 29,000 97 481 -64
2018-12-14 12:21:00 GMT 51.335388 0.966110 29,000 97 481 -384
2018-12-14 12:20:57 GMT 51.336502 0.952396 29,000 97 481 64
2018-12-14 12:20:53 GMT 51.337063 0.945206 29,025 97 481 -64
2018-12-14 12:20:50 GMT 51.337948 0.934525 29,025 97 480 -64
2018-12-14 12:20:47 GMT 51.338783 0.923996 29,000 97 481 -64
2018-12-14 12:20:44 GMT 51.340027 0.909119 29,000 97 480 0
2018-12-14 12:20:41 GMT 51.340622 0.901844 29,000 97 480 -128
2018-12-14 12:20:38 GMT 51.341579 0.890121 29,000 97 480 0
2018-12-14 12:20:35 GMT 51.342682 0.876308 29,000 97 480 128
2018-12-14 12:20:32 GMT 51.343300 0.868759 29,000 97 480 64
2018-12-14 12:20:29 GMT 51.344009 0.859903 29,000 97 480 64
2018-12-14 12:20:26 GMT 51.344696 0.851589 29,000 97 481 128
2018-12-14 12:20:22 GMT 51.346092 0.834198 29,000 97 481 -128
2018-12-14 12:20:19 GMT 51.346840 0.825043 29,000 97 481 -64
2018-12-14 12:20:16 GMT 51.347809 0.813063 29,000 97 482 -64
2018-12-14 12:20:12 GMT 51.349457 0.792574 29,025 97 480 0
2018-12-14 12:20:09 GMT 51.350052 0.785374 29,025 97 480 64
2018-12-14 12:20:06 GMT 51.350739 0.776540 29,000 97 480 64
2018-12-14 12:20:02 GMT 51.351772 0.763779 29,000 97 480 128
2018-12-14 12:19:59 GMT 51.352661 0.752563 29,000 97 480 128
2018-12-14 12:19:56 GMT 51.354008 0.735931 29,000 97 480 128
2018-12-14 12:19:52 GMT 51.354568 0.728760 29,000 97 481 0
2018-12-14 12:19:49 GMT 51.355637 0.715151 29,000 97 481 0
2018-12-14 12:19:46 GMT 51.356430 0.705109 29,000 97 481 -64
2018-12-14 12:19:43 GMT 51.357056 0.697780 29,000 97 481 -128
2018-12-14 12:19:40 GMT 51.358944 0.673523 29,000 97 480 256
2018-12-14 12:19:37 GMT 51.358944 0.673523 29,000 97 481 -128
2018-12-14 12:19:34 GMT 51.359409 0.668030 29,000 97 481 -64
2018-12-14 12:19:31 GMT 51.360477 0.653915 29,000 97 481 -128
2018-12-14 12:19:28 GMT 51.361359 0.643071 29,025 97 480 128
2018-12-14 12:19:25 GMT 51.362000 0.634460 29,000 97 480 64
2018-12-14 12:19:22 GMT 51.363098 0.620579 29,000 97 480 256
2018-12-14 12:19:19 GMT 51.363785 0.611801 29,000 97 480 -192
2018-12-14 12:19:16 GMT 51.364716 0.600128 29,000 97 480 -192
2018-12-14 12:19:13 GMT 51.365318 0.592575 29,000 97 478 0
2018-12-14 12:19:10 GMT 51.366158 0.581589 29,000 97 478 0
2018-12-14 12:19:07 GMT 51.366989 0.570992 29,000 96 479 0
2018-12-14 12:19:04 GMT 51.367928 0.558853 29,000 97 478 64
2018-12-14 12:19:01 GMT 51.368767 0.548096 29,025 97 478 0
2018-12-14 12:18:58 GMT 51.369324 0.540854 29,000 97 478 0
2018-12-14 12:18:55 GMT 51.370255 0.528488 29,000 97 477 64
2018-12-14 12:18:52 GMT 51.371464 0.512848 29,000 97 477 0
2018-12-14 12:18:49 GMT 51.371841 0.508266 29,000 96 477 192
2018-12-14 12:18:46 GMT 51.372677 0.497284 29,000 96 477 64
2018-12-14 12:18:43 GMT 51.373627 0.485032 29,000 96 477 -64
2018-12-14 12:18:40 GMT 51.374451 0.474342 29,000 96 477 -64
2018-12-14 12:18:37 GMT 51.375004 0.467148 29,025 96 478 0
2018-12-14 12:18:34 GMT 51.375961 0.454448 29,000 96 478 64
2018-12-14 12:18:30 GMT 51.377796 0.430603 29,025 96 478 -192
2018-12-14 12:18:27 GMT 51.377796 0.430603 29,025 96 478 64
2018-12-14 12:18:24 GMT 51.378799 0.417777 29,025 96 478 64
2018-12-14 12:18:21 GMT 51.379349 0.410651 29,025 96 478 64
2018-12-14 12:18:18 GMT 51.380219 0.399246 29,025 96 479 0
2018-12-14 12:18:15 GMT 51.381271 0.385041 29,000 96 479 -64
2018-12-14 12:18:12 GMT 51.381985 0.375900 29,025 96 479 -64
2018-12-14 12:18:09 GMT 51.382778 0.365524 29,025 96 479 -64
2018-12-14 12:18:06 GMT 51.383514 0.355497 29,000 96 482 -64
2018-12-14 12:18:03 GMT 51.384155 0.347257 29,025 96 480 64
2018-12-14 12:18:00 GMT 51.384964 0.336456 29,000 96 480 -128
2018-12-14 12:17:57 GMT 51.385620 0.327511 29,000 96 480 -128
2018-12-14 12:17:54 GMT 51.386581 0.314521 29,000 96 481 64
2018-12-14 12:17:51 GMT 51.387451 0.303089 29,000 96 482 0
2018-12-14 12:17:48 GMT 51.388271 0.292053 29,000 96 482 -64
2018-12-14 12:17:45 GMT 51.389622 0.273819 29,000 96 483 0
2018-12-14 12:17:39 GMT 51.390553 0.260849 29,000 96 484 -128
2018-12-14 12:17:36 GMT 51.391342 0.250087 29,000 96 484 0
2018-12-14 12:17:33 GMT 51.392349 0.236503 29,000 96 484 -64
2018-12-14 12:17:30 GMT 51.392784 0.230789 29,000 96 484 0
2018-12-14 12:17:27 GMT 51.393810 0.216522 29,000 96 484 -128
2018-12-14 12:17:24 GMT 51.394547 0.206142 29,000 96 484 64
2018-12-14 12:17:21 GMT 51.395115 0.198669 29,000 96 484 -128
2018-12-14 12:17:18 GMT 51.396011 0.186248 29,025 96 483 -64
2018-12-14 12:17:15 GMT 51.396790 0.175410 29,025 96 484 64
2018-12-14 12:17:12 GMT 51.397385 0.167170 29,025 96 483 -64
2018-12-14 12:17:09 GMT 51.398254 0.154848 29,000 96 483 0
2018-12-14 12:17:06 GMT 51.399025 0.144424 29,000 96 484 -128
2018-12-14 12:17:03 GMT 51.400314 0.125749 29,000 96 483 0
2018-12-14 12:17:00 GMT 51.400314 0.125749 29,000 97 481 -64
2018-12-14 12:16:57 GMT 51.401505 0.109418 29,000 96 484 64
2018-12-14 12:16:54 GMT 51.402237 0.098877 29,000 96 484 192
2018-12-14 12:16:51 GMT 51.402748 0.091858 29,000 103 485 -64
2018-12-14 12:16:48 GMT 51.404297 0.070001 29,000 96 484 0
2018-12-14 12:16:45 GMT 51.405029 0.059814 29,000 96 484 192
2018-12-14 12:16:42 GMT 51.405762 0.049884 29,000 96 484 -64
2018-12-14 12:16:39 GMT 51.405762 0.049884 29,000 96 483 -64
2018-12-14 12:16:36 GMT 51.406704 0.036697 29,000 96 483 -128
2018-12-14 12:16:33 GMT 51.407635 0.023880 29,000 96 483 -64
2018-12-14 12:16:30 GMT 51.408382 0.013428 29,000 96 483 128
2018-12-14 12:16:27 GMT 51.408920 0.005864 29,000 96 482 128
2018-12-14 12:16:24 GMT 51.409470 -0.001336 29,000 98 480 64
2018-12-14 12:16:21 GMT 51.410477 -0.014995 29,000 96 482 0
2018-12-14 12:16:18 GMT 51.411266 -0.025253 29,000 97 481 -64
2018-12-14 12:16:15 GMT 51.412125 -0.036448 29,000 97 480 -128
2018-12-14 12:16:12 GMT 51.413082 -0.048676 29,025 97 480 -64
2018-12-14 12:16:09 GMT 51.414059 -0.060349 29,025 97 481 0
2018-12-14 12:16:06 GMT 51.414780 -0.069258 29,025 97 480 -128
2018-12-14 12:16:03 GMT 51.415829 -0.081863 29,025 97 480 -64
2018-12-14 12:16:00 GMT 51.416622 -0.090408 29,025 98 480 64
2018-12-14 12:15:57 GMT 51.417389 -0.098877 29,025 98 481 64
2018-12-14 12:15:54 GMT 51.418671 -0.112686 29,025 98 480 128
2018-12-14 12:15:51 GMT 51.419369 -0.119858 29,025 99 481 192
2018-12-14 12:15:48 GMT 51.420670 -0.132523 29,000 99 482 64
2018-12-14 12:15:45 GMT 51.422066 -0.145035 29,000 100 482 -64
2018-12-14 12:15:42 GMT 51.423279 -0.154648 29,000 101 483 -64
2018-12-14 12:15:39 GMT 51.424301 -0.161972 29,000 103 485 -128
2018-12-14 12:15:36 GMT 51.426491 -0.176163 29,025 105 484 -64
2018-12-14 12:15:33 GMT 51.428101 -0.185357 29,025 108 484 0
2018-12-14 12:15:30 GMT 51.429749 -0.194339 29,025 108 484 0
2018-12-14 12:15:27 GMT 51.431488 -0.202802 29,025 108 485 64
2018-12-14 12:15:24 GMT 51.434822 -0.217667 29,025 109 484 0
2018-12-14 12:15:21 GMT 51.436890 -0.226333 29,025 121 484 -64
2018-12-14 12:15:18 GMT 51.439384 -0.235901 29,025 113 485 0
2018-12-14 12:15:15 GMT 51.442108 -0.245782 29,000 114 485 128
2018-12-14 12:15:11 GMT 51.445110 -0.255814 28,975 118 485 -64
2018-12-14 12:15:08 GMT 51.447670 -0.263977 29,025 118 485 -128
2018-12-14 12:15:05 GMT 51.451813 -0.276413 29,000 119 485 -64
2018-12-14 12:15:02 GMT 51.455677 -0.287094 29,025 120 485 64
2018-12-14 12:14:59 GMT 51.461498 -0.302353 29,000 121 484 -256
2018-12-14 12:14:56 GMT 51.465176 -0.311890 29,000 121 485 320
2018-12-14 12:14:53 GMT 51.465176 -0.311890 28,975 121 485 128
2018-12-14 12:14:50 GMT 51.468750 -0.321127 29,000 121 484 128
2018-12-14 12:14:47 GMT 51.472809 -0.331650 28,975 121 484 128
2018-12-14 12:14:44 GMT 51.476395 -0.340958 28,975 121 484 0
2018-12-14 12:14:41 GMT 51.480118 -0.350647 28,975 121 484 -64
2018-12-14 12:14:38 GMT 51.486961 -0.368423 28,975 121 484 -256
2018-12-14 12:14:35 GMT 51.486961 -0.368423 29,000 121 471 1280
2018-12-14 12:14:32 GMT 51.489761 -0.375688 29,000 121 469 640
2018-12-14 12:14:29 GMT 51.492783 -0.383631 29,000 121 481 64
2018-12-14 12:14:26 GMT 51.497452 -0.395805 29,000 121 479 64
2018-12-14 12:14:23 GMT 51.502090 -0.407867 29,000 121 475 192
2018-12-14 12:14:20 GMT 51.505161 -0.415878 28,975 121 473 832
2018-12-14 12:14:17 GMT 51.508163 -0.423567 28,950 121 472 1152
2018-12-14 12:14:13 GMT 51.511963 -0.433440 28,900 121 471 1280
2018-12-14 12:14:10 GMT 51.519516 -0.453186 28,750 121 472 1024
2018-12-14 12:14:07 GMT 51.519516 -0.453186 28,750 121 472 1024
2018-12-14 12:14:04 GMT 51.522903 -0.462168 28,700 121 471 512
2018-12-14 12:14:01 GMT 51.525555 -0.468979 28,650 121 470 512
2018-12-14 12:13:58 GMT 51.529465 -0.479202 28,650 121 469 576
2018-12-14 12:13:55 GMT 51.536400 -0.497360 28,600 121 465 64
2018-12-14 12:13:52 GMT 51.536400 -0.497360 28,575 121 465 64
2018-12-14 12:13:48 GMT 51.542221 -0.512572 28,550 121 462 512
2018-12-14 12:13:45 GMT 51.543987 -0.517197 28,550 121 459 384
2018-12-14 12:13:42 GMT 51.547256 -0.525711 28,500 121 445 1600
2018-12-14 12:13:39 GMT 51.550274 -0.533600 28,500 121 456 384
2018-12-14 12:13:36 GMT 51.554169 -0.543823 28,475 121 453 256
2018-12-14 12:13:33 GMT 51.556557 -0.550079 28,475 121 446 1344
2018-12-14 12:13:30 GMT 51.563278 -0.567726 28,450 121 444 1600
2018-12-14 12:13:27 GMT 51.563278 -0.567726 28,450 121 445 1472
2018-12-14 12:13:24 GMT 51.566799 -0.576935 28,300 121 445 1600
2018-12-14 12:13:21 GMT 51.571152 -0.588288 28,275 121 445 1664
2018-12-14 12:13:18 GMT 51.574341 -0.596771 28,025 121 444 1600
2018-12-14 12:13:15 GMT 51.576389 -0.602036 28,175 121 444 1664
2018-12-14 12:13:12 GMT 51.583416 -0.620499 28,050 121 442 1664
2018-12-14 12:13:09 GMT 51.583416 -0.620499 28,000 121 442 1664
2018-12-14 12:13:06 GMT 51.586670 -0.629042 27,925 121 442 1664
2018-12-14 12:13:03 GMT 51.588821 -0.634757 27,875 121 441 1664
2018-12-14 12:13:00 GMT 51.593033 -0.645818 27,775 121 441 1664
2018-12-14 12:12:57 GMT 51.596237 -0.654206 27,575 121 440 1664
2018-12-14 12:12:54 GMT 51.598755 -0.660887 27,525 121 439 1664
2018-12-14 12:12:51 GMT 51.603973 -0.674620 27,500 121 439 1664
2018-12-14 12:12:48 GMT 51.606262 -0.680633 27,425 121 439 1664
2018-12-14 12:12:45 GMT 51.608929 -0.687637 27,375 121 438 1600
2018-12-14 12:12:42 GMT 51.611629 -0.694809 27,275 121 437 1472
2018-12-14 12:12:39 GMT 51.615280 -0.704387 27,175 121 437 1472
2018-12-14 12:12:36 GMT 51.621780 -0.721535 27,075 121 434 1408
2018-12-14 12:12:33 GMT 51.621780 -0.721535 26,975 121 434 1408
2018-12-14 12:12:30 GMT 51.623291 -0.725543 26,975 121 434 1408
2018-12-14 12:12:27 GMT 51.626991 -0.735168 26,925 121 433 1472
2018-12-14 12:12:24 GMT 51.630856 -0.745392 26,775 121 431 1664
2018-12-14 12:12:21 GMT 51.633087 -0.751343 26,075 132 416 2688
2018-12-14 12:12:18 GMT 51.638302 -0.764999 26,000 121 428 1984
2018-12-14 12:12:15 GMT 51.639954 -0.769340 26,425 121 429 2112
2018-12-14 12:12:12 GMT 51.643143 -0.777740 26,375 121 429 2048
2018-12-14 12:12:09 GMT 51.646309 -0.786133 26,425 121 429 2048
2018-12-14 12:12:06 GMT 51.648823 -0.792618 26,350 121 429 2048
2018-12-14 12:12:03 GMT 51.651398 -0.799330 26,175 121 428 2048
2018-12-14 12:12:00 GMT 51.658272 -0.817490 25,975 121 426 2048
2018-12-14 12:11:57 GMT 51.658272 -0.817490 25,950 121 427 1984
2018-12-14 12:11:54 GMT 51.661652 -0.826276 25,900 121 426 1984
2018-12-14 12:11:51 GMT 51.665222 -0.835629 25,575 123 422 2176
2018-12-14 12:11:48 GMT 51.667912 -0.842667 25,625 121 425 2048
2018-12-14 12:11:45 GMT 51.672043 -0.853445 25,625 121 426 2048
2018-12-14 12:11:42 GMT 51.672958 -0.855894 25,375 121 424 2176
2018-12-14 12:11:39 GMT 51.676895 -0.866138 25,325 121 424 2048
2018-12-14 12:11:36 GMT 51.680573 -0.875702 25,275 121 424 2240
2018-12-14 12:11:33 GMT 51.683121 -0.882321 24,925 122 424 2304
2018-12-14 12:11:30 GMT 51.685833 -0.889282 24,975 122 423 2304
2018-12-14 12:11:27 GMT 51.689045 -0.897522 25,000 122 423 2112
2018-12-14 12:11:24 GMT 51.692459 -0.906298 24,900 122 424 2240
2018-12-14 12:11:21 GMT 51.695747 -0.914612 24,675 122 423 2112
2018-12-14 12:11:18 GMT 51.698402 -0.921326 24,625 122 422 2112
2018-12-14 12:11:15 GMT 51.702484 -0.931537 24,525 122 423 2176
2018-12-14 12:11:12 GMT 51.705059 -0.937958 24,300 122 422 2176
2018-12-14 12:11:09 GMT 51.708176 -0.945663 24,250 124 420 1984
2018-12-14 12:11:06 GMT 51.711342 -0.953445 24,025 123 421 2176
2018-12-14 12:11:03 GMT 51.717819 -0.969098 24,025 124 421 2112
2018-12-14 12:10:57 GMT 51.721165 -0.976944 23,325 130 415 3712
2018-12-14 12:10:54 GMT 51.724594 -0.984835 23,725 125 419 1856
2018-12-14 12:10:51 GMT 51.728348 -0.993446 23,700 125 419 1856
2018-12-14 12:10:48 GMT 51.730755 -0.998840 23,300 128 415 2304
2018-12-14 12:10:45 GMT 51.735226 -1.008530 23,450 127 416 1984
2018-12-14 12:10:42 GMT 51.737457 -1.013260 23,425 128 415 2432
2018-12-14 12:10:39 GMT 51.742298 -1.023254 23,275 128 415 2304
2018-12-14 12:10:36 GMT 51.746063 -1.030785 23,100 129 414 3136
2018-12-14 12:10:33 GMT 51.749561 -1.037521 22,950 131 415 3968
2018-12-14 12:10:30 GMT 51.754032 -1.045761 22,825 131 415 4096
2018-12-14 12:10:27 GMT 51.756779 -1.050568 22,675 133 420 3328
2018-12-14 12:10:24 GMT 51.765575 -1.065903 22,175 133 421 2688
2018-12-14 12:10:21 GMT 51.765575 -1.065903 21,925 132 417 2496
2018-12-14 12:10:18 GMT 51.769363 -1.072355 22,100 132 422 2176
2018-12-14 12:10:15 GMT 51.772430 -1.077699 22,025 132 422 2176
2018-12-14 12:10:12 GMT 51.776550 -1.084826 21,750 132 420 2240
2018-12-14 12:10:08 GMT 51.783546 -1.096878 21,700 132 420 2176
2018-12-14 12:10:05 GMT 51.785248 -1.099895 21,675 132 420 2176
2018-12-14 12:10:02 GMT 51.790237 -1.108580 21,575 132 418 2240
2018-12-14 12:09:59 GMT 51.794205 -1.115417 21,400 132 418 2368
2018-12-14 12:09:56 GMT 51.797974 -1.122016 21,350 132 418 2368
2018-12-14 12:09:53 GMT 51.806587 -1.137161 20,550 132 417 2560
2018-12-14 12:09:50 GMT 51.806587 -1.137161 21,025 132 416 2688
2018-12-14 12:09:47 GMT 51.809830 -1.142801 20,925 132 416 2752
2018-12-14 12:09:44 GMT 51.812778 -1.147995 20,800 132 416 2688
2018-12-14 12:09:41 GMT 51.820862 -1.162250 20,600 132 416 2688
2018-12-14 12:09:35 GMT 51.825302 -1.169968 19,250 135 413 2240
2018-12-14 12:09:32 GMT 51.828369 -1.175389 20,150 142 404 2560
2018-12-14 12:09:29 GMT 51.833355 -1.184235 20,075 132 415 2496
2018-12-14 12:09:26 GMT 51.836754 -1.190109 19,950 133 414 2432
2018-12-14 12:09:23 GMT 51.841457 -1.198273 19,875 133 415 2368
2018-12-14 12:09:20 GMT 51.847733 -1.208719 19,475 142 404 2624
2018-12-14 12:09:14 GMT 51.852814 -1.216662 19,500 142 404 2688
2018-12-14 12:09:11 GMT 51.856956 -1.222839 19,450 137 411 2112
2018-12-14 12:09:08 GMT 51.861568 -1.229477 19,300 139 410 2112
2018-12-14 12:09:05 GMT 51.871204 -1.242447 19,150 140 408 2304
2018-12-14 12:09:02 GMT 51.871204 -1.242447 19,050 141 406 2432
2018-12-14 12:08:59 GMT 51.875347 -1.247711 18,925 142 406 2496
2018-12-14 12:08:56 GMT 51.880047 -1.253586 18,800 142 404 2688
2018-12-14 12:08:53 GMT 51.883076 -1.257401 18,725 142 404 2688
2018-12-14 12:08:50 GMT 51.888008 -1.263580 18,650 142 404 2688
2018-12-14 12:08:47 GMT 51.891827 -1.268311 18,450 142 404 2560
2018-12-14 12:08:44 GMT 51.901520 -1.280441 18,150 142 402 2496
2018-12-14 12:08:41 GMT 51.901520 -1.280441 18,175 142 402 2432
2018-12-14 12:08:38 GMT 51.906418 -1.286545 17,725 142 400 2496
2018-12-14 12:08:35 GMT 51.910767 -1.291962 17,450 142 397 2688
2018-12-14 12:08:32 GMT 51.913651 -1.295547 17,850 142 400 2560
2018-12-14 12:08:29 GMT 51.919830 -1.303253 17,675 142 397 2624
2018-12-14 12:08:26 GMT 51.924225 -1.308786 17,525 142 397 2688
2018-12-14 12:08:23 GMT 51.926136 -1.311140 17,375 142 397 2688
2018-12-14 12:08:20 GMT 51.933025 -1.319772 17,275 142 397 2624
2018-12-14 12:08:16 GMT 51.942581 -1.331635 16,925 142 395 2496
2018-12-14 12:08:13 GMT 51.942581 -1.331635 16,875 142 394 2368
2018-12-14 12:08:09 GMT 51.947502 -1.337742 16,750 142 393 2240
2018-12-14 12:08:06 GMT 51.952332 -1.343765 16,675 142 391 2240
2018-12-14 12:08:03 GMT 51.956085 -1.348343 16,400 142 389 2368
2018-12-14 12:08:00 GMT 51.960434 -1.353760 16,400 142 387 2304
2018-12-14 12:07:57 GMT 51.964096 -1.358414 16,400 142 388 2368
2018-12-14 12:07:53 GMT 51.970688 -1.366699 15,150 142 378 2432
2018-12-14 12:07:50 GMT 51.976040 -1.373448 15,925 142 384 2176
2018-12-14 12:07:47 GMT 51.978321 -1.376273 16,025 142 384 2176
2018-12-14 12:07:43 GMT 51.988861 -1.389618 15,750 142 380 2304
2018-12-14 12:07:40 GMT 51.988861 -1.389618 15,625 142 378 2496
2018-12-14 12:07:37 GMT 51.993530 -1.395493 15,600 142 377 2752
2018-12-14 12:07:34 GMT 51.999641 -1.403111 15,325 142 374 3200
2018-12-14 12:07:28 GMT 52.005981 -1.411133 15,175 142 374 3264
2018-12-14 12:07:25 GMT 52.008591 -1.414337 14,975 141 374 3264
2018-12-14 12:07:22 GMT 52.013077 -1.420059 14,400 141 373 2816
2018-12-14 12:07:18 GMT 52.019302 -1.427917 14,650 141 373 2944
2018-12-14 12:07:15 GMT 52.023422 -1.433182 14,500 141 373 2816
2018-12-14 12:07:12 GMT 52.027618 -1.438503 14,450 141 369 2880
2018-12-14 12:07:09 GMT 52.036194 -1.449432 14,050 141 372 2688
2018-12-14 12:07:06 GMT 52.036194 -1.449432 14,050 141 370 2688
2018-12-14 12:07:02 GMT 52.040279 -1.454747 13,900 141 369 2880
2018-12-14 12:06:59 GMT 52.045448 -1.461339 13,750 143 366 2944
2018-12-14 12:06:56 GMT 52.048141 -1.464691 13,625 142 367 2944
2018-12-14 12:06:53 GMT 52.053455 -1.471305 13,500 143 367 3008
2018-12-14 12:06:50 GMT 52.055420 -1.473694 13,425 143 366 2944
2018-12-14 12:06:47 GMT 52.060501 -1.479492 13,050 148 365 3072
2018-12-14 12:06:44 GMT 52.064629 -1.483861 13,025 151 363 3200
2018-12-14 12:06:40 GMT 52.071194 -1.489982 12,825 153 363 3200
2018-12-14 12:06:37 GMT 52.075752 -1.493591 12,550 162 355 2048
2018-12-14 12:06:34 GMT 52.081100 -1.497421 12,475 158 362 3072
2018-12-14 12:06:31 GMT 52.084225 -1.499398 12,350 161 362 2944
2018-12-14 12:06:28 GMT 52.088882 -1.502066 12,050 162 346 2496
2018-12-14 12:06:25 GMT 52.095119 -1.505205 11,975 162 360 2560
2018-12-14 12:06:21 GMT 52.100098 -1.507645 11,850 162 358 2176
2018-12-14 12:06:18 GMT 52.111496 -1.513367 11,675 162 354 2048
2018-12-14 12:06:15 GMT 52.111496 -1.513367 11,600 164 296 1920
2018-12-14 12:06:12 GMT 52.114300 -1.514779 11,575 162 353 2304
2018-12-14 12:06:09 GMT 52.119186 -1.517212 11,450 162 351 2688
2018-12-14 12:06:05 GMT 52.124680 -1.519958 11,300 162 347 2624
2018-12-14 12:06:02 GMT 52.131477 -1.523333 11,075 162 346 2496
2018-12-14 12:05:58 GMT 52.137405 -1.526337 10,900 162 345 1920
2018-12-14 12:05:55 GMT 52.140564 -1.527939 10,850 162 343 1600
2018-12-14 12:05:52 GMT 52.145233 -1.530304 10,775 162 341 1152
2018-12-14 12:05:49 GMT 52.149857 -1.532669 10,675 162 336 768
2018-12-14 12:05:46 GMT 52.153702 -1.534729 10,650 162 329 704
2018-12-14 12:05:43 GMT 52.158188 -1.537018 10,600 162 329 704
2018-12-14 12:05:40 GMT 52.163727 -1.539993 10,550 161 322 640
2018-12-14 12:05:37 GMT 52.167183 -1.541774 10,550 162 318 640
2018-12-14 12:05:34 GMT 52.175003 -1.545855 10,500 162 310 704
2018-12-14 12:05:31 GMT 52.175003 -1.545855 10,475 162 305 1024
2018-12-14 12:05:27 GMT 52.180820 -1.548837 10,450 167 288 2944
2018-12-14 12:05:24 GMT 52.185471 -1.550980 10,350 164 296 1920
2018-12-14 12:05:21 GMT 52.189545 -1.552811 10,225 166 289 2688
2018-12-14 12:05:15 GMT 52.197006 -1.555557 10,075 172 284 3456
2018-12-14 12:05:12 GMT 52.200840 -1.556763 9,850 170 285 3456
2018-12-14 12:05:09 GMT 52.204239 -1.557704 9,525 172 284 3584
2018-12-14 12:05:06 GMT 52.208195 -1.558568 9,475 172 284 3584
2018-12-14 12:05:03 GMT 52.215832 -1.560059 9,250 173 285 3520
2018-12-14 12:05:00 GMT 52.215832 -1.560059 8,875 172 284 3392
2018-12-14 12:04:57 GMT 52.219299 -1.560745 9,025 172 284 3456
2018-12-14 12:04:54 GMT 52.223839 -1.561628 8,575 172 284 3392
2018-12-14 12:04:51 GMT 52.228073 -1.562570 8,625 172 283 3328
2018-12-14 12:04:48 GMT 52.231384 -1.563263 8,300 172 282 3264
2018-12-14 12:04:45 GMT 52.240269 -1.565238 8,250 172 281 3200
2018-12-14 12:04:42 GMT 52.240269 -1.565238 8,075 171 281 3136
2018-12-14 12:04:39 GMT 52.243759 -1.566101 7,975 171 280 3200
2018-12-14 12:04:36 GMT 52.247498 -1.567078 7,825 170 278 3136
2018-12-14 12:04:33 GMT 52.250652 -1.567984 7,725 167 278 2560
2018-12-14 12:04:30 GMT 52.255737 -1.569748 7,500 155 273 1472
2018-12-14 12:04:27 GMT 52.261124 -1.572771 7,350 154 272 1408
2018-12-14 12:04:24 GMT 52.261124 -1.572771 7,300 155 273 1472
2018-12-14 12:04:21 GMT 52.264477 -1.575204 7,275 147 268 1536
2018-12-14 12:04:18 GMT 52.268246 -1.578657 7,000 147 268 1536
2018-12-14 12:04:15 GMT 52.274719 -1.585249 7,075 147 268 1536
2018-12-14 12:04:12 GMT 52.278534 -1.589127 7,000 147 267 1536
2018-12-14 12:04:09 GMT 52.278534 -1.589127 6,900 147 266 1600
2018-12-14 12:04:06 GMT 52.281235 -1.591949 6,800 147 266 1600
2018-12-14 12:04:02 GMT 52.285721 -1.596527 6,150 147 264 1472
2018-12-14 12:03:59 GMT 52.289017 -1.599960 6,675 147 264 1536
2018-12-14 12:03:55 GMT 52.292084 -1.603088 6,475 147 264 1536
2018-12-14 12:03:52 GMT 52.296158 -1.607285 6,525 147 264 1536
2018-12-14 12:03:48 GMT 52.299637 -1.610870 6,350 147 264 1472
2018-12-14 12:03:45 GMT 52.302887 -1.614227 6,350 147 264 1408
2018-12-14 12:03:42 GMT 52.306049 -1.617423 6,150 147 265 1408
2018-12-14 12:03:39 GMT 52.309113 -1.620636 6,025 147 265 1344
2018-12-14 12:03:36 GMT 52.312889 -1.624564 6,125 147 260 1664
2018-12-14 12:03:33 GMT 52.315453 -1.627154 6,025 147 261 1728
2018-12-14 12:03:30 GMT 52.317966 -1.629743 6,000 147 260 1664
2018-12-14 12:03:27 GMT 52.320923 -1.632843 5,850 148 213 1728
2018-12-14 12:03:24 GMT 52.324108 -1.636100 5,775 147 242 960
2018-12-14 12:03:20 GMT 52.331680 -1.643982 5,725 147 242 896
2018-12-14 12:03:17 GMT 52.331680 -1.643982 5,675 147 233 1216
2018-12-14 12:03:14 GMT 52.333561 -1.645909 5,650 147 232 1344
2018-12-14 12:03:11 GMT 52.336853 -1.649323 5,625 147 230 1408
2018-12-14 12:03:08 GMT 52.338959 -1.651611 5,575 147 222 1472
2018-12-14 12:03:05 GMT 52.341293 -1.654053 5,375 147 215 1664
2018-12-14 12:03:02 GMT 52.345200 -1.658072 5,425 147 217 1728
2018-12-14 12:02:58 GMT 52.349899 -1.662750 5,250 149 206 1664
2018-12-14 12:02:52 GMT 52.353012 -1.665649 5,075 151 206 1408
2018-12-14 12:02:48 GMT 52.356884 -1.669137 4,975 152 205 1536
2018-12-14 12:02:45 GMT 52.358559 -1.670550 4,900 153 205 1408
2018-12-14 12:02:42 GMT 52.361816 -1.673218 4,825 153 205 1536
2018-12-14 12:02:36 GMT 52.366516 -1.677017 4,700 153 204 1536
2018-12-14 12:02:33 GMT 52.368896 -1.679001 4,625 153 204 1536
2018-12-14 12:02:30 GMT 52.370708 -1.680516 4,475 153 205 1536
2018-12-14 12:02:27 GMT 52.374016 -1.683184 4,475 155 204 1472
2018-12-14 12:02:23 GMT 52.377506 -1.685852 4,375 157 203 1536
2018-12-14 12:02:19 GMT 52.380569 -1.687927 4,275 159 202 1664
2018-12-14 12:02:15 GMT 52.383682 -1.689682 4,200 161 201 1984
2018-12-14 12:02:12 GMT 52.387051 -1.691424 3,650 161 154 1024
2018-12-14 12:02:08 GMT 52.390495 -1.692915 3,850 165 195 1216
2018-12-14 12:02:04 GMT 52.393707 -1.694260 3,850 165 190 896
2018-12-14 12:02:01 GMT 52.396362 -1.695328 3,800 165 184 1088
2018-12-14 12:01:58 GMT 52.398968 -1.696368 3,700 166 175 1408
2018-12-14 12:01:55 GMT 52.401947 -1.697617 3,650 166 170 1344
2018-12-14 12:01:52 GMT 52.403046 -1.698074 3,600 166 166 960
2018-12-14 12:01:49 GMT 52.405655 -1.699066 3,550 161 154 960
2018-12-14 12:01:45 GMT 52.408276 -1.700213 3,475 164 158 832
2018-12-14 12:01:42 GMT 52.412430 -1.702728 3,400 155 144 1600
2018-12-14 12:01:39 GMT 52.412430 -1.702728 3,400 155 144 1600
2018-12-14 12:01:36 GMT 52.414188 -1.704215 3,300 148 137 2560
2018-12-14 12:01:32 GMT 52.416367 -1.706467 3,125 146 136 2880
2018-12-14 12:01:29 GMT 52.417740 -1.707916 3,000 146 136 2880
2018-12-14 12:01:25 GMT 52.420147 -1.710571 2,800 145 137 3008
2018-12-14 12:01:21 GMT 52.421917 -1.712533 2,650 146 138 2944
2018-12-14 12:01:18 GMT 52.423733 -1.714573 2,450 145 138 2816
2018-12-14 12:01:15 GMT 52.425476 -1.716461 2,300 146 139 2624
2018-12-14 12:01:11 GMT 52.427547 -1.718733 2,125 146 139 2240
2018-12-14 12:01:08 GMT 52.428818 -1.720123 2,050 145 135 2496
2018-12-14 12:01:04 GMT 52.431786 -1.723441 1,825 145 137 2240
2018-12-14 12:01:01 GMT 52.435837 -1.727836 1,675 145 135 2688
2018-12-14 12:00:56 GMT 52.435837 -1.727836 1,525 145 135 2688
2018-12-14 12:00:53 GMT 52.436874 -1.729050 1,425 145 135 2752
2018-12-14 12:00:50 GMT 52.438442 -1.730739 1,275 145 137 2688
2018-12-14 12:00:42 GMT 52.443192 -1.736069 900 145 139 2432
2018-12-14 11:56:00 GMT 52.466286 -1.759281 0 253 6
2018-12-14 11:55:49 GMT 52.466331 -1.758804 0 295 5
2018-12-14 11:55:42 GMT 52.466286 -1.758614 0 315 5
2018-12-14 11:55:34 GMT 52.466175 -1.758440 0 326 4
2018-12-14 11:55:09 GMT 52.465885 -1.758107 0 326 2
2018-12-14 11:54:55 GMT 52.465816 -1.758041 0 326 0
2018-12-14 11:54:30 GMT 52.465534 -1.757714 0 326 13
2018-12-14 11:54:20 GMT 52.464943 -1.757067 0 326 25
2018-12-14 11:54:11 GMT 52.464111 -1.756134 0 326 25
2018-12-14 11:53:51 GMT 52.462177 -1.753979 0 326 22
2018-12-14 11:53:37 GMT 52.461193 -1.752892 0 326 20
2018-12-14 11:53:30 GMT 52.460648 -1.752280 0 326 19
2018-12-14 11:53:23 GMT 52.460117 -1.751690 0 326 18
2018-12-14 11:53:15 GMT 52.459625 -1.751156 0 326 16
2018-12-14 11:53:06 GMT 52.459145 -1.750603 0 326 13
2018-12-14 11:52:56 GMT 52.458710 -1.750126 0 326 11
2018-12-14 11:52:45 GMT 52.458218 -1.749573 0 326 21
2018-12-14 11:52:39 GMT 52.457657 -1.748962 0 326 29
2018-12-14 11:52:09 GMT 52.454739 -1.745586 0 306 23
2018-12-14 11:51:57 GMT 52.454155 -1.743766 0 295 22
2018-12-14 11:51:46 GMT 52.453686 -1.742210 0 295 21
2018-12-14 11:51:31 GMT 52.453148 -1.740170 0 239 17
2018-12-14 11:51:23 GMT 52.453304 -1.739332 0 239 16
2018-12-14 11:51:08 GMT 52.453838 -1.738057 0 239 13
2018-12-14 11:51:02 GMT 52.454041 -1.737595 0 239 11
2018-12-14 11:50:31 GMT 52.454666 -1.736095 0 239 5
2018-12-14 11:50:23 GMT 52.454762 -1.735859 0 239 4
2018-12-14 11:48:38 GMT 52.454922 -1.735573 0 244 0
2018-12-14 11:48:18 GMT 52.454910 -1.735546 0 244 0
2018-12-14 11:48:14 GMT 52.454922 -1.735546 0 244 0
2018-12-14 11:48:04 GMT 52.454910 -1.735554 0 244 0
2018-12-14 11:47:35 GMT 52.454819 -1.735706 0 227 2

Making use of Plane Finder data

You are free to use the raw flight data, aircraft information and images provided in this report for your own purposes provided the data is correctly attributed to Plane Finder. We ask that you please credit Plane Finder and link to planefinder.net in close proximity to the content.

Optionally one of the following logos (no smaller then 150x24px) can be used and must link to planefinder.net

Embedding the Plane Finder map

You are welcome to embed the Plane Finder playback map on your website to offer visitors a more interactive experience. We suggest using the following HTML code:

<iframe src="//planefinder.net/data/report/SN2038-EI-FWB-7700-squawk-2018-12-14/map" width="800" height="600" seamless="seamless"></iframe>

Where our data comes from

Plane Finder has a global network of data feeds and antenna radars that receive data broadcast directly from aircraft. The primary technologies used are ADS-B and MLAT. We also show feeds from the FAA and a FLARM glider feed.

Click here to find out more about the Plane Finder network.

How we collect our data